createdAt,value
2024-01-11T00:01:47.702Z,-1.35
2024-01-11T00:04:14.712Z,-1.32
2024-01-11T00:06:43.592Z,-1.26
2024-01-11T00:09:10.382Z,-1.25
2024-01-11T00:11:36.999Z,-1.22
2024-01-11T00:14:03.932Z,-1.42
2024-01-11T00:16:32.972Z,-1.48
2024-01-11T00:19:00.190Z,-1.31
2024-01-11T00:21:29.093Z,-1.29
2024-01-11T00:24:00.394Z,-1.27
2024-01-11T00:26:27.065Z,-1.30
2024-01-11T00:28:56.696Z,-1.37
2024-01-11T00:31:25.640Z,-1.40
2024-01-11T00:33:52.250Z,-1.34
2024-01-11T00:36:21.145Z,-1.43
2024-01-11T00:38:50.237Z,-1.33
2024-01-11T00:41:17.572Z,-1.40
2024-01-11T00:43:46.577Z,-1.36
2024-01-11T00:46:15.909Z,-1.37
2024-01-11T00:48:42.568Z,-1.37
2024-01-11T00:51:11.283Z,-1.45
2024-01-11T00:53:37.955Z,-1.33
2024-01-11T00:56:07.166Z,-1.30
2024-01-11T00:58:36.097Z,-1.30
2024-01-11T01:01:12.597Z,-1.54
2024-01-11T01:03:42.583Z,-1.40
2024-01-11T01:06:12.239Z,-1.30
2024-01-11T01:08:38.978Z,-1.24
2024-01-11T01:11:05.632Z,-1.34
2024-01-11T01:13:32.251Z,-1.30
2024-01-11T01:16:01.340Z,-1.45
2024-01-11T01:18:28.725Z,-1.42
2024-01-11T01:20:57.465Z,-1.32
2024-01-11T01:23:26.531Z,-1.35
2024-01-11T01:25:53.214Z,-1.43
2024-01-11T01:28:19.749Z,-1.39
2024-01-11T01:30:46.366Z,-1.36
2024-01-11T01:33:13.095Z,-1.34
2024-01-11T01:35:44.641Z,-1.45
2024-01-11T01:38:13.778Z,-1.38
2024-01-11T01:40:40.377Z,-1.43
2024-01-11T01:43:11.393Z,-1.33
2024-01-11T01:45:40.252Z,-1.41
2024-01-11T01:48:10.762Z,-1.35
2024-01-11T01:50:37.648Z,-1.41
2024-01-11T01:53:09.586Z,-1.40
2024-01-11T01:55:38.662Z,-1.46
2024-01-11T01:58:07.749Z,-1.51
2024-01-11T02:00:37.039Z,-1.40
2024-01-11T02:03:06.920Z,-1.46
2024-01-11T02:05:35.796Z,-1.40
2024-01-11T02:08:09.471Z,-1.53
2024-01-11T02:10:40.938Z,-1.43
2024-01-11T02:13:10.730Z,-1.46
2024-01-11T02:15:37.660Z,-1.49
2024-01-11T02:18:04.807Z,-1.52
2024-01-11T02:20:32.324Z,-1.46
2024-01-11T02:23:08.314Z,-1.42
2024-01-11T02:25:37.314Z,-1.45
2024-01-11T02:28:04.152Z,-1.45
2024-01-11T02:30:30.780Z,-1.41
2024-01-11T02:33:01.314Z,-1.48
2024-01-11T02:35:28.941Z,-1.45
2024-01-11T02:37:59.939Z,-1.48
2024-01-11T02:40:27.069Z,-1.56
2024-01-11T02:42:53.607Z,-1.52
2024-01-11T02:45:22.279Z,-1.55
2024-01-11T02:47:51.416Z,-1.47
2024-01-11T02:50:18.309Z,-1.48
2024-01-11T02:52:44.868Z,-1.48
2024-01-11T02:55:11.582Z,-1.54
2024-01-11T02:57:38.259Z,-1.57
2024-01-11T03:00:05.521Z,-1.55
2024-01-11T03:02:34.372Z,-1.52
2024-01-11T03:05:01.008Z,-1.53
2024-01-11T03:07:31.366Z,-1.60
2024-01-11T03:09:58.391Z,-1.56
2024-01-11T03:12:27.366Z,-1.55
2024-01-11T03:14:56.962Z,-1.58
2024-01-11T03:17:25.787Z,-1.71
2024-01-11T03:19:52.847Z,-1.64
2024-01-11T03:22:19.427Z,-1.63
2024-01-11T03:24:45.984Z,-1.63
2024-01-11T03:27:12.563Z,-1.64
2024-01-11T03:29:41.461Z,-1.69
2024-01-11T03:32:13.924Z,-1.77
2024-01-11T03:34:40.726Z,-1.73
2024-01-11T03:37:09.673Z,-1.67
2024-01-11T03:39:38.709Z,-1.75
2024-01-11T03:42:05.564Z,-1.82
2024-01-11T03:44:34.292Z,-1.79
2024-01-11T03:47:05.989Z,-1.69
2024-01-11T03:49:32.665Z,-1.70
2024-01-11T03:52:01.545Z,-1.77
2024-01-11T03:54:32.994Z,-1.86
2024-01-11T03:57:02.582Z,-1.77
2024-01-11T03:59:31.475Z,-1.75
2024-01-11T04:01:58.634Z,-1.66
2024-01-11T04:04:25.272Z,-1.68
2024-01-11T04:06:55.816Z,-1.75
2024-01-11T04:09:22.443Z,-1.82
2024-01-11T04:11:51.323Z,-1.82
2024-01-11T04:14:18.344Z,-1.66
2024-01-11T04:16:45.269Z,-1.70
2024-01-11T04:19:18.122Z,-1.77
2024-01-11T04:21:48.526Z,-1.80
2024-01-11T04:24:15.082Z,-1.91
2024-01-11T04:26:43.786Z,-1.93
2024-01-11T04:29:10.431Z,-1.92
2024-01-11T04:31:37.029Z,-1.85
2024-01-11T04:34:03.690Z,-1.85
2024-01-11T04:36:37.374Z,-1.73
2024-01-11T04:39:04.403Z,-1.81
2024-01-11T04:41:33.508Z,-1.76
2024-01-11T04:44:02.708Z,-1.80
2024-01-11T04:46:29.306Z,-1.83
2024-01-11T04:48:55.998Z,-1.85
2024-01-11T04:51:22.625Z,-1.85
2024-01-11T04:53:49.255Z,-1.85
2024-01-11T04:56:19.263Z,-1.88
2024-01-11T04:58:48.677Z,-1.88
2024-01-11T05:01:17.126Z,-1.90
2024-01-11T05:03:47.835Z,-1.95
2024-01-11T05:06:22.876Z,-1.86
2024-01-11T05:08:57.057Z,-1.80
2024-01-11T05:11:27.808Z,-1.77
2024-01-11T05:13:56.877Z,-1.79
2024-01-11T05:16:27.801Z,-1.76
2024-01-11T05:18:56.511Z,-1.85
2024-01-11T05:21:26.898Z,-1.83
2024-01-11T05:23:54.195Z,-1.89
2024-01-11T05:26:21.593Z,-1.91
2024-01-11T05:28:48.461Z,-1.87
2024-01-11T05:31:16.804Z,-1.87
2024-01-11T05:33:47.116Z,-1.77
2024-01-11T05:36:13.853Z,-1.93
2024-01-11T05:38:41.665Z,-1.93
2024-01-11T05:41:10.967Z,-1.88
2024-01-11T05:43:40.364Z,-1.85
2024-01-11T05:46:10.303Z,-1.90
2024-01-11T05:48:37.254Z,-1.92
2024-01-11T05:51:04.037Z,-1.97
2024-01-11T05:53:30.765Z,-2.04
2024-01-11T05:55:59.866Z,-1.86
2024-01-11T05:58:26.624Z,-1.90
2024-01-11T06:00:56.920Z,-1.88
2024-01-11T06:03:24.174Z,-1.80
2024-01-11T06:05:53.325Z,-1.81
2024-01-11T06:08:22.568Z,-1.86
2024-01-11T06:10:54.056Z,-1.73
2024-01-11T06:13:20.763Z,-1.75
2024-01-11T06:15:51.025Z,-1.93
2024-01-11T06:18:17.830Z,-1.85
2024-01-11T06:20:49.469Z,-1.80
2024-01-11T06:23:18.098Z,-1.71
2024-01-11T06:25:46.374Z,-2.01
2024-01-11T06:28:15.192Z,-1.88
2024-01-11T06:30:46.610Z,-1.89
2024-01-11T06:33:13.628Z,-1.88
2024-01-11T06:35:41.173Z,-1.92
2024-01-11T06:38:08.972Z,-2.07
2024-01-11T06:40:38.378Z,-2.03
2024-01-11T06:43:07.193Z,-2.08
2024-01-11T06:45:33.811Z,-2.05
2024-01-11T06:48:00.688Z,-2.12
2024-01-11T06:50:30.132Z,-1.99
2024-01-11T06:52:59.361Z,-2.02
2024-01-11T06:55:25.902Z,-2.10
2024-01-11T06:57:52.478Z,-2.10
2024-01-11T07:00:19.196Z,-2.02
2024-01-11T07:02:46.140Z,-1.97
2024-01-11T07:05:18.114Z,-2.00
2024-01-11T07:07:44.886Z,-2.05
2024-01-11T07:10:11.485Z,-1.97
2024-01-11T07:12:46.977Z,-1.94
2024-01-11T07:15:13.907Z,-2.05
2024-01-11T07:17:40.730Z,-2.07
2024-01-11T07:20:09.012Z,-1.97
2024-01-11T07:22:36.878Z,-2.14
2024-01-11T07:25:07.975Z,-2.08
2024-01-11T07:27:34.540Z,-2.05
2024-01-11T07:30:03.430Z,-2.05
2024-01-11T07:32:30.246Z,-1.98
2024-01-11T07:34:56.902Z,-2.14
2024-01-11T07:37:27.600Z,-2.12
2024-01-11T07:39:54.223Z,-2.00
2024-01-11T07:42:22.857Z,-2.14
2024-01-11T07:44:51.788Z,-2.24
2024-01-11T07:47:18.812Z,-2.25
2024-01-11T07:49:45.476Z,-2.11
2024-01-11T07:52:14.610Z,-2.23
2024-01-11T07:54:41.492Z,-2.10
2024-01-11T07:57:10.320Z,-2.09
2024-01-11T07:59:37.398Z,-2.04
2024-01-11T08:02:07.168Z,-2.24
2024-01-11T08:04:33.975Z,-2.26
2024-01-11T08:07:00.669Z,-2.27
2024-01-11T08:09:27.554Z,-2.08
2024-01-11T08:14:25.671Z,-1.86
2024-01-11T08:16:54.787Z,-1.80
2024-01-11T08:19:21.601Z,-1.82
2024-01-11T08:21:48.219Z,-1.92
2024-01-11T08:24:14.820Z,-1.78
2024-01-11T08:26:44.755Z,-1.95
2024-01-11T08:29:16.204Z,-1.81
2024-01-11T08:31:45.054Z,-1.86
2024-01-11T08:34:12.023Z,-1.80
2024-01-11T08:36:40.949Z,-1.68
2024-01-11T08:39:08.111Z,-2.17
2024-01-11T08:41:38.868Z,-2.05
2024-01-11T08:44:08.972Z,-2.04
2024-01-11T08:46:35.737Z,-1.90
2024-01-11T08:49:05.320Z,-1.67
2024-01-11T08:51:34.243Z,-1.61
2024-01-11T08:54:03.202Z,-1.67
2024-01-11T08:56:37.113Z,-1.75
2024-01-11T08:59:03.896Z,-1.64
2024-01-11T09:01:30.854Z,-1.83
2024-01-11T09:03:59.726Z,-1.67
2024-01-11T09:06:26.402Z,-1.64
2024-01-11T09:08:53.525Z,-1.80
2024-01-11T09:11:22.669Z,-2.02
2024-01-11T09:13:49.243Z,-1.86
2024-01-11T09:16:18.669Z,-1.90
2024-01-11T09:18:50.174Z,-1.68
2024-01-11T09:21:21.621Z,-1.82
2024-01-11T09:23:48.214Z,-1.67
2024-01-11T09:26:14.928Z,-1.66
2024-01-11T09:28:41.638Z,-1.75
2024-01-11T09:31:08.252Z,-1.56
2024-01-11T09:33:43.844Z,-1.64
2024-01-11T09:36:12.797Z,-1.64
2024-01-11T09:38:39.489Z,-1.65
2024-01-11T09:41:11.675Z,-1.54
2024-01-11T09:43:41.805Z,-1.40
2024-01-11T09:46:10.571Z,-1.25
2024-01-11T09:48:39.438Z,-1.69
2024-01-11T09:51:12.455Z,-1.33
2024-01-11T09:53:43.412Z,-1.58
2024-01-11T09:56:11.435Z,-1.22
2024-01-11T09:58:49.653Z,-1.20
2024-01-11T10:01:18.858Z,-1.30
2024-01-11T10:03:47.649Z,-1.36
2024-01-11T10:06:15.107Z,-1.39
2024-01-11T10:08:46.510Z,-1.25
2024-01-11T10:11:15.648Z,-0.98
2024-01-11T10:13:42.237Z,-1.20
2024-01-11T10:16:15.023Z,-1.38
2024-01-11T10:18:46.829Z,-1.05
2024-01-11T10:21:13.763Z,-1.31
2024-01-11T10:23:42.956Z,-1.41
2024-01-11T10:26:12.307Z,-1.32
2024-01-11T10:28:39.207Z,-1.54
2024-01-11T10:31:11.223Z,-1.55
2024-01-11T10:33:42.657Z,-1.55
2024-01-11T10:36:09.576Z,-1.65
2024-01-11T10:38:40.859Z,-1.39
2024-01-11T10:41:08.921Z,-1.49
2024-01-11T10:43:39.602Z,-1.56
2024-01-11T10:46:09.108Z,-1.42
2024-01-11T10:48:44.782Z,-1.35
2024-01-11T10:51:16.473Z,-1.48
2024-01-11T10:53:48.472Z,-1.46
2024-01-11T10:56:21.715Z,-1.31
2024-01-11T10:58:51.851Z,-1.43
2024-01-11T11:01:21.880Z,-1.44
2024-01-11T11:03:58.114Z,-1.54
2024-01-11T11:06:29.499Z,-1.51
2024-01-11T11:08:59.977Z,-1.58
2024-01-11T11:11:27.066Z,-1.87
2024-01-11T11:13:55.217Z,-1.83
2024-01-11T11:16:21.944Z,-1.55
2024-01-11T11:18:48.617Z,-1.61
2024-01-11T11:21:18.516Z,-1.71
2024-01-11T11:23:46.446Z,-1.76
2024-01-11T11:26:19.682Z,-1.81
2024-01-11T11:28:50.351Z,-1.91
2024-01-11T11:31:46.857Z,-1.75
2024-01-11T11:34:17.651Z,-1.72
2024-01-11T11:36:47.667Z,-1.56
2024-01-11T11:39:21.520Z,-1.42
2024-01-11T11:41:50.909Z,-1.73
2024-01-11T11:44:18.217Z,-1.71
2024-01-11T11:46:48.413Z,-1.63
2024-01-11T11:49:17.542Z,-1.44
2024-01-11T11:51:44.970Z,-1.30
2024-01-11T11:54:12.172Z,-1.30
2024-01-11T11:56:39.186Z,-1.24
2024-01-11T11:59:08.619Z,-1.39
2024-01-11T12:01:37.022Z,-1.23
2024-01-11T12:04:05.877Z,-1.20
2024-01-11T12:06:32.706Z,-1.00
2024-01-11T12:09:01.774Z,-1.11
2024-01-11T12:11:32.210Z,-1.20
2024-01-11T12:13:59.451Z,-1.14
2024-01-11T12:16:28.611Z,-1.32
2024-01-11T12:18:55.692Z,-1.35
2024-01-11T12:21:24.957Z,-1.25
2024-01-11T12:23:54.102Z,-1.22
2024-01-11T12:26:24.091Z,-1.06
2024-01-11T12:28:51.533Z,-0.81
2024-01-11T12:31:22.452Z,-0.99
2024-01-11T12:33:54.172Z,-1.11
2024-01-11T12:36:23.830Z,-1.02
2024-01-11T12:38:52.994Z,-1.14
2024-01-11T12:41:26.801Z,-1.25
2024-01-11T12:43:54.405Z,-1.26
2024-01-11T12:46:21.033Z,-1.18
2024-01-11T12:48:48.667Z,-1.05
2024-01-11T12:51:21.861Z,-1.19
2024-01-11T12:53:50.322Z,-1.29
2024-01-11T12:56:24.053Z,-1.43
2024-01-11T12:58:51.240Z,-1.29
2024-01-11T13:01:19.374Z,-1.48
2024-01-11T13:03:48.383Z,-1.35
2024-01-11T13:06:20.357Z,-1.48
2024-01-11T13:08:47.231Z,-1.12
2024-01-11T13:11:16.233Z,-1.25
2024-01-11T13:13:47.986Z,-1.30
2024-01-11T13:16:15.982Z,-1.30
2024-01-11T13:18:45.452Z,-1.34
2024-01-11T13:21:14.946Z,-1.26
2024-01-11T13:23:42.064Z,-1.36
2024-01-11T13:26:13.526Z,-1.58
2024-01-11T13:28:42.882Z,-1.41
2024-01-11T13:31:10.975Z,-1.64
2024-01-11T13:33:41.131Z,-1.82
2024-01-11T13:36:08.809Z,-1.73
2024-01-11T13:38:40.295Z,-1.67
2024-01-11T13:41:09.508Z,-1.87
2024-01-11T13:43:37.546Z,-1.72
2024-01-11T13:46:05.690Z,-1.81
2024-01-11T13:48:33.468Z,-1.86
2024-01-11T13:51:04.769Z,-1.76
2024-01-11T13:53:32.097Z,-1.80
2024-01-11T13:56:00.787Z,-1.72
2024-01-11T13:58:29.910Z,-1.93
2024-01-11T14:00:58.418Z,-1.87
2024-01-11T14:03:28.542Z,-2.00
2024-01-11T14:05:58.310Z,-1.98
2024-01-11T14:08:28.087Z,-1.91
2024-01-11T14:10:55.852Z,-1.95
2024-01-11T14:13:24.890Z,-1.88
2024-01-11T14:15:52.246Z,-1.78
2024-01-11T14:18:20.223Z,-2.00
2024-01-11T14:20:50.228Z,-1.92
2024-01-11T14:23:17.287Z,-1.81
2024-01-11T14:25:46.569Z,-1.58
2024-01-11T14:28:15.419Z,-1.55
2024-01-11T14:30:47.275Z,-1.61
2024-01-11T14:33:16.276Z,-1.75
2024-01-11T14:35:42.957Z,-1.57
2024-01-11T14:38:09.744Z,-1.68
2024-01-11T14:40:36.586Z,-1.82
2024-01-11T14:43:05.376Z,-1.78
2024-01-11T14:45:34.336Z,-1.85
2024-01-11T14:48:05.876Z,-1.96
2024-01-11T14:50:35.603Z,-2.10
2024-01-11T14:53:04.533Z,-2.14
2024-01-11T14:55:31.435Z,-2.22
2024-01-11T14:58:02.876Z,-2.14
2024-01-11T15:00:32.067Z,-2.12
2024-01-11T15:03:01.128Z,-2.20
2024-01-11T15:05:30.186Z,-2.35
2024-01-11T15:07:59.068Z,-2.37
2024-01-11T15:10:26.659Z,-2.19
2024-01-11T15:12:55.543Z,-2.34
2024-01-11T15:15:22.129Z,-2.36
2024-01-11T15:17:53.406Z,-2.48
2024-01-11T15:20:20.277Z,-2.46
2024-01-11T15:22:46.981Z,-2.43
2024-01-11T15:25:13.646Z,-2.45
2024-01-11T15:27:40.315Z,-2.50
2024-01-11T15:30:13.220Z,-2.36
2024-01-11T15:32:43.506Z,-2.34
2024-01-11T15:35:10.384Z,-2.32
2024-01-11T15:37:37.186Z,-2.52
2024-01-11T15:40:06.781Z,-2.47
2024-01-11T15:42:33.383Z,-2.38
2024-01-11T15:45:00.075Z,-2.40
2024-01-11T15:47:26.830Z,-2.46
2024-01-11T15:49:55.815Z,-2.42
2024-01-11T15:52:25.102Z,-2.59
2024-01-11T15:54:53.882Z,-2.54
2024-01-11T15:57:25.244Z,-2.54
2024-01-11T15:59:54.171Z,-2.51
2024-01-11T16:02:21.560Z,-2.65
2024-01-11T16:04:48.444Z,-2.71
2024-01-11T16:07:17.787Z,-2.76
2024-01-11T16:09:49.352Z,-2.65
2024-01-11T16:12:22.134Z,-2.64
2024-01-11T16:14:48.815Z,-2.76
2024-01-11T16:17:18.501Z,-2.62
2024-01-11T16:19:45.213Z,-2.58
2024-01-11T16:22:14.389Z,-2.58
2024-01-11T16:24:41.350Z,-2.51
2024-01-11T16:27:12.216Z,-2.57
2024-01-11T16:29:42.482Z,-2.63
2024-01-11T16:32:16.197Z,-2.54
2024-01-11T16:34:42.807Z,-2.74
2024-01-11T16:37:09.537Z,-2.91
2024-01-11T16:39:38.051Z,-2.82
2024-01-11T16:42:05.065Z,-2.82
2024-01-11T16:44:31.793Z,-2.78
2024-01-11T16:47:00.928Z,-2.79
2024-01-11T16:49:30.569Z,-2.78
2024-01-11T16:51:57.382Z,-2.84
2024-01-11T16:54:26.195Z,-2.78
2024-01-11T16:56:53.138Z,-2.76
2024-01-11T16:59:23.373Z,-2.69
2024-01-11T17:01:49.940Z,-2.63
2024-01-11T17:04:21.406Z,-2.70
2024-01-11T17:06:50.247Z,-2.65
2024-01-11T17:09:19.129Z,-2.77
2024-01-11T17:11:48.283Z,-2.64
2024-01-11T17:14:18.230Z,-2.65
2024-01-11T17:16:47.116Z,-2.64
2024-01-11T17:19:13.953Z,-2.53
2024-01-11T17:21:40.706Z,-2.53
2024-01-11T17:24:07.380Z,-2.48
2024-01-11T17:26:34.034Z,-2.63
2024-01-11T17:29:00.863Z,-2.72
2024-01-11T17:31:31.162Z,-2.53
2024-01-11T17:33:57.897Z,-2.52
2024-01-11T17:36:28.100Z,-2.51
2024-01-11T17:39:01.528Z,-2.38
2024-01-11T17:41:31.681Z,-2.48
2024-01-11T17:43:58.716Z,-2.37
2024-01-11T17:46:29.343Z,-2.50
2024-01-11T17:48:58.554Z,-2.33
2024-01-11T17:51:30.225Z,-2.24
2024-01-11T17:53:57.041Z,-2.37
2024-01-11T17:56:24.334Z,-2.52
2024-01-11T17:58:51.019Z,-2.38
2024-01-11T18:01:26.328Z,-2.55
2024-01-11T18:03:53.337Z,-2.59
2024-01-11T18:06:20.099Z,-2.61
2024-01-11T18:08:46.982Z,-2.64
2024-01-11T18:11:17.006Z,-2.67
2024-01-11T18:13:46.324Z,-2.40
2024-01-11T18:16:13.101Z,-2.57
2024-01-11T18:18:39.755Z,-2.60
2024-01-11T18:21:06.356Z,-2.47
2024-01-11T18:23:35.058Z,-2.50
2024-01-11T18:26:04.326Z,-2.52
2024-01-11T18:28:31.015Z,-2.50
2024-01-11T18:31:01.836Z,-2.55
2024-01-11T18:33:28.640Z,-2.69
2024-01-11T18:35:55.439Z,-2.52
2024-01-11T18:38:27.048Z,-2.52
2024-01-11T18:40:53.769Z,-2.39
2024-01-11T18:43:20.358Z,-2.41
2024-01-11T18:45:48.715Z,-2.39
2024-01-11T18:48:17.514Z,-2.35
2024-01-11T18:50:46.666Z,-2.65
2024-01-11T18:53:13.624Z,-2.63
2024-01-11T18:55:40.265Z,-2.56
2024-01-11T18:58:07.956Z,-2.68
2024-01-11T19:00:36.030Z,-2.64
2024-01-11T19:03:07.660Z,-2.62
2024-01-11T19:05:34.806Z,-2.61
2024-01-11T19:08:06.555Z,-2.61
2024-01-11T19:10:33.406Z,-2.59
2024-01-11T19:13:02.898Z,-2.55
2024-01-11T19:15:35.681Z,-2.51
2024-01-11T19:18:02.711Z,-2.55
2024-01-11T19:20:29.775Z,-2.59
2024-01-11T19:22:56.406Z,-2.68
2024-01-11T19:25:25.450Z,-2.76
2024-01-11T19:27:59.468Z,-2.86
2024-01-11T19:30:29.133Z,-2.80
2024-01-11T19:32:56.127Z,-2.86
2024-01-11T19:35:27.736Z,-2.78
2024-01-11T19:37:54.473Z,-2.79
2024-01-11T19:40:26.811Z,-2.75
2024-01-11T19:42:53.376Z,-2.82
2024-01-11T19:45:24.830Z,-2.83
2024-01-11T19:47:51.615Z,-2.87
2024-01-11T19:50:20.609Z,-2.90
2024-01-11T19:52:47.351Z,-2.79
2024-01-11T19:55:25.599Z,-2.75
2024-01-11T19:57:54.467Z,-2.72
2024-01-11T20:00:21.132Z,-2.75
2024-01-11T20:02:47.918Z,-2.89
2024-01-11T20:05:14.672Z,-2.80
2024-01-11T20:07:44.068Z,-2.81
2024-01-11T20:10:11.367Z,-3.00
2024-01-11T20:12:38.890Z,-2.98
2024-01-11T20:15:08.653Z,-3.10
2024-01-11T20:17:39.963Z,-3.09
2024-01-11T20:20:10.492Z,-3.11
2024-01-11T20:22:37.262Z,-3.01
2024-01-11T20:25:08.423Z,-3.01
2024-01-11T20:27:40.535Z,-3.02
2024-01-11T20:30:10.911Z,-2.89
2024-01-11T20:32:41.529Z,-3.05
2024-01-11T20:35:08.555Z,-3.10
2024-01-11T20:37:35.784Z,-3.12
2024-01-11T20:40:02.550Z,-3.05
2024-01-11T20:42:31.305Z,-2.96
2024-01-11T20:44:58.070Z,-2.97
2024-01-11T20:47:25.706Z,-2.89
2024-01-11T20:49:54.738Z,-2.88
2024-01-11T20:52:21.613Z,-2.84
2024-01-11T20:54:54.193Z,-2.89
2024-01-11T20:57:23.125Z,-2.98
2024-01-11T20:59:49.842Z,-2.74
2024-01-11T21:02:19.065Z,-2.79
2024-01-11T21:04:45.723Z,-2.84
2024-01-11T21:07:12.266Z,-2.84
2024-01-11T21:09:41.401Z,-2.79
2024-01-11T21:12:08.303Z,-2.89
2024-01-11T21:14:37.362Z,-2.79
2024-01-11T21:17:06.351Z,-2.90
2024-01-11T21:19:33.205Z,-2.94
2024-01-11T21:22:02.246Z,-2.81
2024-01-11T21:24:31.252Z,-2.88
2024-01-11T21:26:57.995Z,-2.92
2024-01-11T21:29:27.165Z,-2.84
2024-01-11T21:31:56.218Z,-2.89
2024-01-11T21:34:22.806Z,-2.82
2024-01-11T21:36:49.457Z,-2.78
2024-01-11T21:39:16.378Z,-2.69
2024-01-11T21:41:45.256Z,-2.67
2024-01-11T21:44:12.090Z,-2.81
2024-01-11T21:46:38.805Z,-2.79
2024-01-11T21:49:08.527Z,-2.67
2024-01-11T21:51:35.260Z,-2.88
2024-01-11T21:54:02.007Z,-2.78
2024-01-11T21:56:31.285Z,-2.71
2024-01-11T21:58:58.053Z,-2.97
2024-01-11T22:01:24.725Z,-2.87
2024-01-11T22:03:58.225Z,-2.91
2024-01-11T22:06:29.674Z,-2.79
2024-01-11T22:08:59.203Z,-2.80
2024-01-11T22:11:30.528Z,-2.96
2024-01-11T22:13:57.458Z,-2.91
2024-01-11T22:16:24.020Z,-2.92
2024-01-11T22:18:50.746Z,-2.96
2024-01-11T22:21:19.954Z,-3.00
2024-01-11T22:23:46.552Z,-3.10
2024-01-11T22:26:16.881Z,-3.13
2024-01-11T22:28:45.755Z,-3.14
2024-01-11T22:31:15.565Z,-3.15
2024-01-11T22:33:42.281Z,-3.06
2024-01-11T22:36:09.613Z,-3.10
2024-01-11T22:38:40.998Z,-3.05
2024-01-11T22:41:10.172Z,-3.02
2024-01-11T22:43:39.340Z,-2.97
2024-01-11T22:46:05.936Z,-2.99
2024-01-11T22:48:38.220Z,-3.06
2024-01-11T22:51:09.826Z,-3.04
2024-01-11T22:53:36.506Z,-3.01
2024-01-11T22:56:03.202Z,-2.92
2024-01-11T22:58:29.749Z,-3.00
2024-01-11T23:01:01.638Z,-3.05
2024-01-11T23:03:28.322Z,-2.97
2024-01-11T23:05:57.369Z,-2.98
2024-01-11T23:08:26.522Z,-3.04
2024-01-11T23:10:53.570Z,-3.11
2024-01-11T23:13:23.155Z,-3.07
2024-01-11T23:15:52.045Z,-3.06
2024-01-11T23:18:18.711Z,-3.11
2024-01-11T23:20:45.461Z,-3.11
2024-01-11T23:23:14.676Z,-3.10
2024-01-11T23:25:41.257Z,-3.17
2024-01-11T23:28:12.686Z,-3.07
2024-01-11T23:30:41.587Z,-3.12
2024-01-11T23:33:10.490Z,-3.12
2024-01-11T23:35:39.609Z,-3.03
2024-01-11T23:38:06.246Z,-3.12
2024-01-11T23:40:32.832Z,-3.02
2024-01-11T23:43:02.438Z,-3.02
2024-01-11T23:45:31.452Z,-3.04
2024-01-11T23:48:03.044Z,-3.04
2024-01-11T23:50:29.766Z,-3.12
2024-01-11T23:52:58.645Z,-3.04
2024-01-11T23:55:25.233Z,-2.96
2024-01-11T23:57:54.076Z,-2.99
